Latest Weather Observations for Brisbane Airport

IDQ60901

Issued at 9:41 pm EST Monday 10 December 2018 (issued every 10 minutes, with the page automatically refreshed every 10 minutes)

About weather observations | Map of Brisbane area stations | Latest observations for Brisbane area | Other Formats
Station Details ID: 040842 Name: BRISBANE AERO Lat: -27.39 Lon: 153.13 Height: 4.51 m
Data from the previous 72 hours. | See also: Recent months at Brisbane Airport
Date/Time
EST
Temp
°C
App
Temp
°C
Dew
Point
°C
Rel
Hum
%
Delta-T
°C
Wind Press
QNH
hPa
Press
MSL
hPa
Rain since
9am
mm
Dir  Spd
km/h
Gust
km/h
Spd
kts
Gust
kts
10/09:30pm 21.6 22.6 17.7 78 2.4 NE 9 13 5 7 1016.5 1016.5 0.0
10/09:00pm 21.5 22.6 18.1 81 2.1 NE 9 13 5 7 1016.5 1016.5 0.0
10/08:30pm 22.1 23.3 18.3 79 2.4 NE 9 13 5 7 1016.2 1016.2 0.0
10/08:00pm 22.0 22.5 18.3 79 2.3 NE 13 17 7 9 1015.9 1015.9 0.0
10/07:30pm 22.6 23.8 18.3 76 2.7 NE 9 13 5 7 1015.7 1015.7 0.0
10/07:00pm 23.4 24.3 18.3 73 3.2 NE 11 15 6 8 1015.3 1015.3 0.0
10/06:30pm 23.9 24.2 17.8 68 3.8 NE 13 17 7 9 1015.1 1015.1 0.0
10/06:00pm 24.4 23.9 17.8 66 4.1 NE 17 20 9 11 1014.6 1014.6 0.0
10/05:30pm 25.2 24.1 17.7 63 4.7 NE 20 26 11 14 1014.0 1014.0 0.0
10/05:00pm 26.1 25.1 17.5 59 5.4 NE 19 26 10 14 1013.7 1013.7 0.0
10/04:30pm 25.8 25.1 18.7 65 4.5 NE 20 26 11 14 1013.5 1013.5 0.0
10/04:00pm 25.1 23.9 18.3 66 4.3 NE 22 30 12 16 1013.6 1013.6 0.0
10/03:30pm 26.0 24.9 18.6 63 4.7 NNE 22 30 12 16 1014.0 1014.0 0.0
10/03:00pm 27.3 25.6 18.2 57 5.8 NNE 24 28 13 15 1014.1 1014.1 0.0
10/02:30pm 26.7 25.6 17.8 58 5.6 NE 20 28 11 15 1014.4 1014.4 0.0
10/02:00pm 26.9 26.2 17.3 55 6.0 NNE 17 22 9 12 1014.8 1014.8 0.0
10/01:30pm 27.3 26.8 19.1 61 5.3 NNE 20 26 11 14 1014.8 1014.8 0.0
10/01:00pm 27.9 26.9 18.0 55 6.3 NNE 20 28 11 15 1014.9 1014.9 0.0
10/12:30pm 27.5 26.8 18.2 57 5.9 NE 19 28 10 15 1015.2 1015.2 0.0
10/12:00pm 27.0 25.8 17.4 55 6.0 NE 20 30 11 16 1015.4 1015.4 0.0
10/11:30am 26.9 25.8 17.7 57 5.8 NE 20 28 11 15 1015.6 1015.6 0.0
10/11:00am 27.4 27.2 18.5 58 5.7 NE 17 28 9 15 1015.5 1015.5 0.0
10/10:30am 26.7 26.7 18.0 59 5.5 ENE 15 22 8 12 1015.8 1015.8 0.0
10/10:00am 26.5 25.7 17.2 56 5.8 NE 17 24 9 13 1015.9 1015.9 0.0
10/09:30am 26.0 26.1 17.5 59 5.3 NE 13 22 7 12 1016.0 1016.0 0.0
10/09:00am 25.3 26.6 18.5 66 4.3 NE 9 15 5 8 1016.3 1016.3 0.0
10/08:30am 24.8 25.9 18.8 69 3.8 NE 11 15 6 8 1016.6 1016.6 0.0
10/08:00am 25.2 26.5 19.4 70 3.7 NE 11 19 6 10 1016.6 1016.6 0.0
10/07:30am 24.2 25.9 19.4 74 3.1 SE 9 13 5 7 1016.4 1016.4 0.0
10/07:00am 24.2 25.5 19.2 73 3.2 ESE 11 15 6 8 1016.2 1016.2 0.0
10/06:30am 24.0 25.2 19.0 73 3.2 SE 11 17 6 9 1016.0 1016.0 0.0
10/06:00am 22.3 25.5 18.8 80 2.2 CALM 0 0 0 0 1015.8 1015.8 0.0
10/05:30am 20.9 22.6 18.5 86 1.5 SSW 7 7 4 4 1015.4 1015.4 0.0
10/05:00am 20.7 21.9 18.3 86 1.5 SSW 9 11 5 6 1015.3 1015.3 0.0
10/04:30am 21.1 24.1 18.5 85 1.6 CALM 0 0 0 0 1015.1 1015.1 0.0
10/04:00am 20.8 23.4 18.4 86 1.5 S 2 7 1 4 1014.8 1014.8 0.0
10/03:30am 20.2 21.8 17.9 87 1.4 NE 6 11 3 6 1014.8 1014.8 0.0
10/03:00am 21.0 24.0 18.4 85 1.6 CALM 0 6 0 3 1015.0 1015.0 0.0
10/02:30am 21.2 23.0 18.3 83 1.8 ESE 6 13 3 7 1015.6 1015.6 0.0
10/02:00am 22.2 24.2 19.2 83 1.9 ENE 7 11 4 6 1015.5 1015.5 0.0
10/01:30am 22.6 24.8 19.5 82 2.0 E 7 15 4 8 1016.0 1016.0 0.0
10/01:00am 22.4 24.0 19.2 82 2.0 E 9 17 5 9 1016.2 1016.2 0.0
10/12:30am 22.6 23.5 18.5 77 2.6 ENE 11 17 6 9 1016.8 1016.8 0.0
10/12:00am 22.8 23.9 18.0 74 3.0 E 9 15 5 8 1017.0 1017.0 0.0
 
Date/Time
EST
Temp
°C
App
Temp
°C
Dew
Point
°C
Rel
Hum
%
Delta-T
°C
Wind Press
QNH
hPa
Press
MSL
hPa
Rain since
9am
mm
Dir  Spd
km/h
Gust
km/h
Spd
kts
Gust
kts
09/11:30pm 23.2 22.9 17.4 70 3.6 ENE 15 24 8 13 1017.1 1017.1 0.0
09/11:00pm 22.8 23.4 17.6 72 3.2 ENE 11 19 6 10 1017.2 1017.2 0.0
09/10:30pm 22.7 22.7 18.0 75 2.9 E 15 28 8 15 1017.2 1017.2 0.0
09/10:00pm 22.9 22.5 18.8 77 2.6 ENE 19 30 10 16 1017.3 1017.3 0.0
09/09:30pm 23.1 22.7 18.1 73 3.1 E 17 26 9 14 1017.5 1017.5 0.0
09/09:00pm 23.1 23.4 18.7 76 2.8 E 15 26 8 14 1017.3 1017.3 0.0
09/08:30pm 23.0 23.4 18.2 74 3.0 ENE 13 22 7 12 1017.3 1017.3 0.0
09/08:00pm 22.9 23.0 18.4 76 2.8 E 15 26 8 14 1017.1 1017.1 0.0
09/07:30pm 23.0 23.0 18.0 73 3.1 E 15 26 8 14 1017.0 1017.0 0.0
09/07:00pm 23.4 23.2 18.6 74 3.0 E 17 28 9 15 1017.0 1017.0 0.0
09/06:30pm 23.5 23.5 18.2 72 3.3 E 15 28 8 15 1016.8 1016.8 0.0
09/06:00pm 23.9 23.4 17.8 68 3.8 E 17 28 9 15 1016.9 1016.9 0.0
09/05:30pm 24.3 23.6 17.4 65 4.3 E 17 28 9 15 1016.7 1016.7 0.0
09/05:00pm 25.0 23.8 17.1 61 4.9 E 19 28 10 15 1016.5 1016.5 0.0
09/04:30pm 25.3 24.0 16.7 59 5.3 E 19 28 10 15 1016.3 1016.3 0.0
09/04:00pm 25.4 24.7 16.3 57 5.6 E 15 26 8 14 1016.2 1016.2 0.0
09/03:30pm 25.4 24.0 15.5 54 6.0 ENE 17 26 9 14 1016.3 1016.3 0.0
09/03:00pm 25.4 24.0 15.5 54 6.0 E 17 26 9 14 1016.5 1016.5 0.0
09/02:30pm 26.1 24.4 16.3 54 6.0 ENE 20 33 11 18 1016.8 1016.8 0.0
09/02:00pm 23.5 22.6 18.2 72 3.3 ENE 20 35 11 19 1017.2 1017.2 0.0
09/01:30pm 24.8 23.6 18.5 68 4.0 ENE 22 35 12 19 1017.0 1017.0 0.0
09/01:00pm 24.6 24.0 18.8 70 3.7 E 20 30 11 16 1017.3 1017.3 0.0
09/12:30pm 25.2 24.7 18.6 67 4.2 ENE 19 30 10 16 1017.5 1017.5 0.0
09/12:00pm 24.2 22.6 17.4 65 4.2 E 22 33 12 18 1018.0 1017.9 0.0
09/11:30am 25.9 24.1 17.0 58 5.5 ENE 22 32 12 17 1017.8 1017.8 0.0
09/11:00am 26.5 25.0 16.4 53 6.2 E 19 26 10 14 1018.3 1018.2 0.0
09/10:30am 26.3 24.9 17.0 56 5.8 E 20 28 11 15 1018.4 1018.3 0.0
09/10:00am 25.5 24.1 16.9 59 5.3 ESE 20 30 11 16 1018.3 1018.2 0.0
09/09:30am 24.9 23.5 17.1 62 4.8 ESE 20 35 11 19 1018.4 1018.3 0.0
09/09:00am 25.0 24.1 17.8 64 4.5 ESE 19 32 10 17 1018.5 1018.4 0.0
09/08:30am 25.2 24.7 17.9 64 4.6 E 17 32 9 17 1018.6 1018.5 0.0
09/08:00am 24.5 23.6 16.9 62 4.7 ESE 17 28 9 15 1018.7 1018.6 0.0
09/07:30am 24.7 23.8 16.9 62 4.8 ESE 17 30 9 16 1018.6 1018.5 0.0
09/07:00am 24.2 23.6 17.6 66 4.1 ESE 17 30 9 16 1018.4 1018.3 0.0
09/06:30am 23.1 22.8 17.4 70 3.5 ESE 15 19 8 10 1018.3 1018.2 0.0
09/06:00am 23.0 23.7 18.0 73 3.1 SE 11 20 6 11 1018.2 1018.1 0.0
09/05:30am 22.1 23.5 17.9 77 2.6 SE 7 15 4 8 1018.1 1018.0 0.0
09/05:00am 21.6 22.6 17.7 78 2.4 SSE 9 15 5 8 1017.8 1017.8 0.0
09/04:30am 21.3 22.2 17.6 79 2.3 SE 9 13 5 7 1017.7 1017.7 0.0
09/04:00am 21.8 22.2 17.2 75 2.8 SE 11 20 6 11 1017.4 1017.4 0.0
09/03:30am 21.9 21.9 17.3 75 2.8 ESE 13 20 7 11 1017.5 1017.5 0.0
09/03:00am 22.0 22.1 17.5 75 2.8 ESE 13 19 7 10 1017.6 1017.6 0.0
09/02:30am 21.9 22.0 17.5 76 2.7 ESE 13 19 7 10 1017.7 1017.7 0.0
09/02:00am 22.3 22.0 17.4 74 3.0 ESE 15 26 8 14 1018.1 1018.0 0.0
09/01:30am 22.4 22.1 17.4 73 3.1 ESE 15 24 8 13 1018.4 1018.3 0.0
09/01:00am 22.3 22.0 17.3 73 3.1 ESE 15 26 8 14 1018.6 1018.5 0.0
09/12:30am 22.3 22.0 17.3 73 3.1 ESE 15 26 8 14 1018.8 1018.7 0.0
09/12:00am 22.2 22.2 17.1 73 3.1 ESE 13 22 7 12 1019.3 1019.2 0.0
 
Date/Time
EST
Temp
°C
App
Temp
°C
Dew
Point
°C
Rel
Hum
%
Delta-T
°C
Wind Press
QNH
hPa
Press
MSL
hPa
Rain since
9am
mm
Dir  Spd
km/h
Gust
km/h
Spd
kts
Gust
kts
08/11:30pm 22.4 22.3 17.0 71 3.3 ESE 13 19 7 10 1019.8 1019.7 0.0
08/11:00pm 22.3 22.3 17.1 72 3.2 ESE 13 24 7 13 1020.2 1020.1 0.0
08/10:30pm 22.3 22.2 16.9 71 3.3 ESE 13 20 7 11 1020.5 1020.4 0.0
08/10:00pm 22.3 22.3 17.1 72 3.2 ESE 13 20 7 11 1020.7 1020.6 0.0
08/09:30pm 22.4 22.3 17.0 71 3.3 ESE 13 22 7 12 1020.7 1020.6 0.0
08/09:00pm 22.3 22.2 16.9 71 3.3 ESE 13 26 7 14 1020.5 1020.4 0.0
08/08:30pm 22.3 22.1 16.7 70 3.4 ESE 13 20 7 11 1020.5 1020.4 0.0
08/08:00pm 22.4 21.9 16.8 70 3.4 ESE 15 22 8 12 1020.4 1020.3 0.0
08/07:30pm 22.7 21.9 17.0 70 3.5 ESE 17 28 9 15 1020.2 1020.1 0.0
08/07:00pm 22.8 21.7 16.4 67 3.9 ESE 17 30 9 16 1020.1 1020.0 0.0
08/06:30pm 23.0 21.9 16.4 66 4.0 ESE 17 28 9 15 1020.0 1019.9 0.0
08/06:00pm 23.3 22.6 16.4 65 4.2 ESE 15 24 8 13 1019.7 1019.6 0.0
08/05:30pm 23.2 22.0 16.1 64 4.3 ESE 17 28 9 15 1019.5 1019.4 0.0
08/05:00pm 23.7 22.0 16.3 63 4.5 ESE 20 32 11 17 1019.0 1018.9 0.0
08/04:30pm 23.7 22.7 15.7 61 4.8 ESE 15 26 8 14 1018.8 1018.7 0.0
08/04:00pm 24.1 23.1 16.6 63 4.6 ESE 17 26 9 14 1018.7 1018.6 0.0
08/03:30pm 24.0 22.4 15.9 60 4.9 ESE 19 30 10 16 1018.8 1018.7 0.0
08/03:00pm 25.4 23.6 16.1 56 5.7 ESE 20 30 11 16 1018.9 1018.8 0.0
08/02:30pm 25.0 23.2 16.0 57 5.5 ESE 20 32 11 17 1019.0 1018.9 0.0
08/02:00pm 24.5 22.9 16.1 59 5.1 ESE 19 30 10 16 1019.3 1019.2 0.0
08/01:30pm 24.0 22.5 15.3 58 5.2 ESE 17 28 9 15 1019.7 1019.6 0.0
08/01:00pm 23.9 22.1 15.6 59 5.0 ESE 19 30 10 16 1019.8 1019.7 0.0
08/12:30pm 24.1 21.9 15.0 56 5.4 ESE 20 32 11 17 1019.8 1019.7 0.0
08/12:00pm 24.9 22.2 15.6 56 5.6 E 24 35 13 19 1019.9 1019.8 0.0
08/11:30am 24.7 22.7 15.6 57 5.5 E 20 37 11 20 1020.2 1020.1 0.0
08/11:00am 24.8 22.6 14.9 54 5.9 ESE 20 35 11 19 1020.2 1020.1 0.0
08/10:30am 24.4 22.2 15.0 55 5.6 E 20 32 11 17 1020.5 1020.4 0.0
08/10:00am 24.7 22.5 14.4 52 6.1 E 19 33 10 18 1020.7 1020.6 0.0
08/09:30am 24.0 22.3 15.7 59 5.0 ESE 19 28 10 15 1020.8 1020.7 0.0
08/09:00am 23.4 22.2 16.1 63 4.4 E 17 28 9 15 1021.1 1021.0 0.0
08/08:30am 22.5 22.0 16.8 70 3.5 ESE 15 26 8 14 1021.1 1021.0 0.0
08/08:00am 21.8 20.1 15.8 68 3.6 SE 19 32 10 17 1021.2 1021.1 0.0
08/07:30am 21.7 19.3 15.5 68 3.7 E 22 39 12 21 1021.0 1020.9 0.0
08/07:00am 22.4 20.5 15.2 63 4.3 E 19 30 10 16 1020.8 1020.7 0.0
08/06:30am 22.4 21.4 15.5 65 4.1 ESE 15 20 8 11 1020.2 1020.1 0.0
08/06:00am 21.9 20.7 16.1 69 3.5 E 17 30 9 16 1020.1 1020.0 0.0
08/05:30am 21.6 20.8 15.2 67 3.8 ESE 13 26 7 14 1019.6 1019.5 0.0
08/05:00am 21.5 20.9 15.6 69 3.5 SE 13 20 7 11 1019.5 1019.4 0.0
08/04:30am 21.5 20.7 16.0 71 3.3 ESE 15 28 8 15 1019.2 1019.1 0.0
08/04:00am 21.7 19.8 14.3 62 4.3 ESE 17 26 9 14 1019.1 1019.0 0.0
08/03:30am 21.7 20.7 14.7 64 4.1 ESE 13 22 7 12 1019.1 1019.0 0.0
08/03:00am 21.8 20.1 14.8 64 4.1 ESE 17 30 9 16 1019.2 1019.1 0.0
08/02:30am 21.7 20.2 14.3 62 4.3 ESE 15 24 8 13 1019.2 1019.1 0.0
08/02:00am 21.7 20.1 14.9 65 4.0 ESE 17 26 9 14 1019.2 1019.1 0.0
08/01:30am 21.9 19.7 13.4 58 4.9 ESE 17 28 9 15 1019.6 1019.5 0.0
08/01:00am 22.0 19.5 13.5 58 4.9 ESE 19 26 10 14 1019.9 1019.8 0.0
08/12:30am 22.1 19.9 13.4 57 5.0 ESE 17 28 9 15 1020.1 1020.0 0.0
08/12:00am 22.2 19.6 13.7 58 4.9 ESE 20 35 11 19 1020.4 1020.3 0.0
 
Date/Time
EST
Temp
°C
App
Temp
°C
Dew
Point
°C
Rel
Hum
%
Delta-T
°C
Wind Press
QNH
hPa
Press
MSL
hPa
Rain since
9am
mm
Dir  Spd
km/h
Gust
km/h
Spd
kts
Gust
kts
07/11:30pm 22.4 20.2 14.4 60 4.7 ESE 19 30 10 16 1020.9 1020.8 0.0
07/11:00pm 22.3 20.3 15.0 63 4.3 E 19 32 10 17 1021.0 1020.9 0.0
07/10:30pm 22.3 20.4 15.2 64 4.2 ESE 19 30 10 16 1021.3 1021.2 0.0
07/10:00pm 22.3 20.8 16.2 68 3.7 ESE 19 32 10 17 1021.2 1021.1 0.0

Latest Capital City Observations: Canberra | Sydney | Melbourne | Brisbane | Adelaide | Perth | Hobart | Darwin

Other Formats:

Comma delimited format used in spreadsheet applications
http://www.bom.gov.au/fwo/IDQ60901/IDQ60901.94578.axf

JavaScript Object Notation format (JSON) in row-major order
http://www.bom.gov.au/fwo/IDQ60901/IDQ60901.94578.json